createdAt,value
2019-06-08T00:00:33.598Z,13.62
2019-06-08T00:05:36.955Z,14.90
2019-06-08T00:10:40.073Z,16.25
2019-06-08T00:15:43.279Z,15.13
2019-06-08T00:20:46.434Z,15.23
2019-06-08T00:25:49.540Z,14.28
2019-06-08T00:30:52.994Z,13.50
2019-06-08T00:35:56.145Z,13.88
2019-06-08T00:41:00.537Z,15.83
2019-06-08T00:46:05.061Z,15.83
2019-06-08T00:51:08.877Z,14.20
2019-06-08T00:56:11.958Z,14.85
2019-06-08T01:01:15.462Z,14.80
2019-06-08T01:06:21.025Z,15.25
2019-06-08T01:11:24.794Z,17.00
2019-06-08T01:16:29.254Z,15.95
2019-06-08T01:21:34.470Z,16.15
2019-06-08T01:26:37.568Z,15.65
2019-06-08T01:31:42.136Z,13.85
2019-06-08T01:36:45.514Z,14.07
2019-06-08T01:41:52.235Z,16.23
2019-06-08T01:46:58.037Z,15.40
2019-06-08T01:52:02.281Z,15.55
2019-06-08T01:57:05.452Z,15.63
2019-06-08T02:02:08.607Z,16.67
2019-06-08T02:07:13.082Z,14.78
2019-06-08T02:12:16.375Z,15.95
2019-06-08T02:17:19.487Z,16.00
2019-06-08T02:22:22.640Z,16.80
2019-06-08T02:27:27.196Z,15.15
2019-06-08T02:32:31.578Z,14.70
2019-06-08T02:37:37.737Z,15.88
2019-06-08T02:42:40.554Z,14.90
2019-06-08T02:47:43.658Z,14.87
2019-06-08T02:52:50.388Z,14.38
2019-06-08T02:57:54.141Z,15.90
2019-06-08T03:03:01.219Z,14.98
2019-06-08T03:08:06.697Z,16.60
2019-06-08T03:13:10.480Z,13.87
2019-06-08T03:18:13.488Z,16.12
2019-06-08T03:23:17.666Z,17.23
2019-06-08T03:28:21.062Z,15.65
2019-06-08T03:33:24.386Z,16.93
2019-06-08T03:38:27.633Z,15.93
2019-06-08T03:43:30.775Z,15.90
2019-06-08T03:48:35.016Z,16.07
2019-06-08T03:53:42.022Z,17.95
2019-06-08T03:58:47.979Z,18.92
2019-06-08T04:08:53.625Z,18.85
2019-06-08T04:13:57.975Z,19.73
2019-06-08T04:19:01.207Z,19.15
2019-06-08T04:24:04.348Z,19.10
2019-06-08T04:29:07.380Z,21.05
2019-06-08T04:34:11.757Z,19.67
2019-06-08T04:39:14.928Z,20.20
2019-06-08T04:44:19.374Z,18.92
2019-06-08T04:49:25.132Z,21.35
2019-06-08T04:54:30.076Z,20.35
2019-06-08T04:59:33.126Z,18.55
2019-06-08T05:04:36.253Z,18.80
2019-06-08T05:09:40.991Z,19.42
2019-06-08T05:14:45.480Z,20.23
2019-06-08T05:19:50.517Z,18.70
2019-06-08T05:24:53.952Z,17.80
2019-06-08T05:29:58.388Z,17.80
2019-06-08T05:35:01.554Z,17.25
2019-06-08T05:40:05.286Z,17.60
2019-06-08T05:45:09.094Z,19.80
2019-06-08T05:50:12.592Z,19.07
2019-06-08T05:55:18.810Z,16.55
2019-06-08T06:00:22.392Z,14.83
2019-06-08T06:05:25.917Z,13.05
2019-06-08T06:10:30.248Z,11.90
2019-06-08T06:15:33.447Z,12.05
2019-06-08T06:20:36.701Z,10.93
2019-06-08T06:25:41.299Z,11.20
2019-06-08T06:30:46.561Z,11.93
2019-06-08T06:35:52.012Z,10.37
2019-06-08T06:40:54.536Z,10.23
2019-06-08T06:45:58.905Z,10.20
2019-06-08T06:51:02.650Z,9.63
2019-06-08T06:56:05.984Z,9.97
2019-06-08T07:01:09.181Z,9.35
2019-06-08T07:06:12.639Z,8.30
2019-06-08T07:11:15.634Z,6.80
2019-06-08T07:16:19.456Z,7.08
2019-06-08T07:21:23.061Z,7.85
2019-06-08T07:26:26.285Z,6.40
2019-06-08T07:31:29.432Z,7.22
2019-06-08T07:36:32.838Z,7.05
2019-06-08T07:41:36.018Z,6.25
2019-06-08T07:46:40.235Z,6.55
2019-06-08T07:51:57.656Z,7.40
2019-06-08T07:56:50.131Z,7.37
2019-06-08T08:01:56.171Z,7.83
2019-06-08T08:07:00.898Z,6.60
2019-06-08T08:12:04.257Z,6.15
2019-06-08T08:17:07.602Z,6.33
2019-06-08T08:22:22.043Z,5.42
2019-06-08T08:32:20.310Z,5.12
2019-06-08T08:37:23.556Z,5.22
2019-06-08T08:42:27.051Z,4.55
2019-06-08T08:47:31.940Z,4.70
2019-06-08T08:52:38.059Z,4.70
2019-06-08T08:57:41.677Z,5.00
2019-06-08T09:02:45.806Z,5.30
2019-06-08T09:07:52.544Z,4.72
2019-06-08T09:13:01.709Z,4.60
2019-06-08T09:18:04.457Z,4.72
2019-06-08T09:23:15.656Z,5.50
2019-06-08T09:28:12.580Z,4.78
2019-06-08T09:33:18.604Z,4.67
2019-06-08T09:38:20.940Z,5.67
2019-06-08T09:43:24.393Z,5.04
2019-06-08T09:48:28.797Z,4.90
2019-06-08T09:53:37.665Z,4.80
2019-06-08T10:03:42.509Z,4.45
2019-06-08T10:08:47.929Z,5.10
2019-06-08T10:13:50.617Z,5.05
2019-06-08T10:18:54.971Z,4.90
2019-06-08T10:24:01.039Z,5.13
2019-06-08T10:29:05.238Z,5.47
2019-06-08T10:34:11.080Z,4.75
2019-06-08T10:39:13.614Z,5.28
2019-06-08T10:44:18.271Z,5.22
2019-06-08T10:49:21.587Z,5.37
2019-06-08T10:54:24.729Z,5.50
2019-06-08T10:59:28.912Z,4.85
2019-06-08T11:04:32.450Z,5.10
2019-06-08T11:09:35.717Z,5.70
2019-06-08T11:14:40.745Z,5.42
2019-06-08T11:19:44.102Z,4.87
2019-06-08T11:24:48.536Z,5.55
2019-06-08T11:29:51.696Z,5.37
2019-06-08T11:34:54.688Z,4.58
2019-06-08T11:39:58.126Z,4.72
2019-06-08T11:45:04.439Z,5.17
2019-06-08T11:50:12.970Z,4.45
2019-06-08T11:55:14.704Z,4.47
2019-06-08T12:00:48.921Z,4.65
2019-06-08T12:05:52.286Z,4.70
2019-06-08T12:11:01.272Z,4.47
2019-06-08T12:16:01.201Z,5.72
2019-06-08T12:21:05.499Z,5.28
2019-06-08T12:26:10.125Z,5.40
2019-06-08T12:31:17.671Z,4.90
2019-06-08T12:36:20.552Z,5.40
2019-06-08T12:41:23.327Z,4.87
2019-06-08T12:46:27.997Z,6.05
2019-06-08T12:51:31.361Z,6.00
2019-06-08T12:56:37.731Z,6.47
2019-06-08T13:01:42.307Z,5.40
2019-06-08T13:06:45.396Z,7.47
2019-06-08T13:11:50.715Z,6.87
2019-06-08T13:21:58.267Z,6.85
2019-06-08T13:27:01.624Z,7.23
2019-06-08T13:32:04.700Z,7.37
2019-06-08T13:37:08.445Z,7.67
2019-06-08T13:42:13.108Z,6.53
2019-06-08T13:47:18.621Z,7.30
2019-06-08T13:52:23.576Z,6.90
2019-06-08T13:57:26.733Z,7.20
2019-06-08T14:02:31.752Z,8.88
2019-06-08T14:07:37.887Z,9.90
2019-06-08T14:12:40.461Z,11.40
2019-06-08T14:17:43.641Z,10.47
2019-06-08T14:22:50.410Z,11.20
2019-06-08T14:27:52.314Z,11.88
2019-06-08T14:32:57.662Z,11.55
2019-06-08T14:38:01.283Z,11.90
2019-06-08T14:43:04.436Z,11.83
2019-06-08T14:48:07.612Z,11.93
2019-06-08T14:53:11.080Z,13.25
2019-06-08T14:58:14.651Z,12.70
2019-06-08T15:03:18.377Z,12.13
2019-06-08T15:08:23.634Z,11.38
2019-06-08T15:13:28.580Z,9.88
2019-06-08T15:18:31.932Z,9.80
2019-06-08T15:23:35.814Z,9.63
2019-06-08T15:28:39.018Z,9.03
2019-06-08T15:33:42.092Z,8.58
2019-06-08T15:38:47.844Z,7.37
2019-06-08T15:48:52.665Z,5.47
2019-06-08T15:53:57.874Z,4.65
2019-06-08T15:59:00.953Z,4.57
2019-06-08T16:04:04.310Z,3.90
2019-06-08T16:09:08.727Z,4.20
2019-06-08T16:14:11.802Z,3.20
2019-06-08T16:19:14.937Z,3.60
2019-06-08T16:24:18.316Z,2.67
2019-06-08T16:29:21.412Z,3.00
2019-06-08T16:34:24.768Z,4.17
2019-06-08T16:39:28.640Z,2.22
2019-06-08T16:44:32.357Z,3.00
2019-06-08T16:49:35.996Z,2.58
2019-06-08T16:54:39.232Z,3.05
2019-06-08T16:59:42.638Z,2.35
2019-06-08T17:04:48.875Z,2.42
2019-06-08T17:14:54.569Z,2.37
2019-06-08T17:19:57.624Z,2.22
2019-06-08T17:25:00.718Z,1.90
2019-06-08T17:30:08.386Z,2.20
2019-06-08T17:35:10.134Z,1.82
2019-06-08T17:40:13.714Z,2.35
2019-06-08T17:45:17.119Z,2.98
2019-06-08T17:50:20.302Z,2.20
2019-06-08T17:55:23.401Z,2.70
2019-06-08T18:00:26.609Z,2.65
2019-06-08T18:05:29.945Z,2.65
2019-06-08T18:10:33.785Z,3.25
2019-06-08T18:15:39.094Z,2.75
2019-06-08T18:20:42.474Z,3.70
2019-06-08T18:25:48.086Z,3.27
2019-06-08T18:30:51.496Z,3.02
2019-06-08T18:35:54.549Z,2.50
2019-06-08T18:40:57.586Z,2.33
2019-06-08T18:46:02.660Z,2.35
2019-06-08T18:51:08.331Z,2.98
2019-06-08T18:56:11.500Z,3.25
2019-06-08T19:01:14.524Z,3.42
2019-06-08T19:06:18.837Z,3.30
2019-06-08T19:11:22.557Z,3.37
2019-06-08T19:16:28.187Z,3.22
2019-06-08T19:21:30.779Z,3.77
2019-06-08T19:26:33.955Z,3.12
2019-06-08T19:31:39.003Z,3.62
2019-06-08T19:36:43.132Z,3.13
2019-06-08T19:41:50.429Z,3.40
2019-06-08T19:46:53.209Z,3.42
2019-06-08T19:51:58.054Z,3.30
2019-06-08T19:57:01.380Z,3.20
2019-06-08T20:02:04.486Z,3.05
2019-06-08T20:07:08.703Z,3.40
2019-06-08T20:12:12.116Z,3.20
2019-06-08T20:17:17.249Z,3.22
2019-06-08T20:22:20.176Z,2.92
2019-06-08T20:27:23.825Z,3.62
2019-06-08T20:32:28.193Z,3.63
2019-06-08T20:37:31.460Z,5.03
2019-06-08T20:42:34.729Z,4.97
2019-06-08T20:47:39.152Z,4.45
2019-06-08T20:52:42.455Z,5.15
2019-06-08T20:57:47.751Z,5.00
2019-06-08T21:02:51.971Z,4.90
2019-06-08T21:07:58.871Z,4.90
2019-06-08T21:13:00.858Z,4.05
2019-06-08T21:18:03.961Z,4.37
2019-06-08T21:23:08.168Z,3.60
2019-06-08T21:28:11.482Z,4.37
2019-06-08T21:33:14.560Z,4.15
2019-06-08T21:38:23.710Z,4.92
2019-06-08T21:43:22.626Z,3.70
2019-06-08T21:48:27.505Z,3.50
2019-06-08T21:53:30.764Z,3.97
2019-06-08T21:58:33.964Z,3.62
2019-06-08T22:03:38.073Z,3.83
2019-06-08T22:08:41.354Z,3.65
2019-06-08T22:13:44.477Z,3.80
2019-06-08T22:18:47.622Z,4.17
2019-06-08T22:23:51.835Z,4.05
2019-06-08T22:28:55.423Z,4.10
2019-06-08T22:34:00.777Z,3.60
2019-06-08T22:39:07.862Z,3.77
2019-06-08T22:44:10.314Z,3.42
2019-06-08T22:49:15.339Z,3.50
2019-06-08T22:54:18.371Z,3.60
2019-06-08T22:59:21.494Z,3.58
2019-06-08T23:04:24.566Z,3.65
2019-06-08T23:09:28.366Z,2.92
2019-06-08T23:14:31.819Z,2.72
2019-06-08T23:19:37.240Z,2.70
2019-06-08T23:24:39.914Z,2.30
2019-06-08T23:29:42.927Z,2.95
2019-06-08T23:34:47.813Z,2.47
2019-06-08T23:39:51.086Z,3.00
2019-06-08T23:44:54.568Z,2.75
2019-06-08T23:49:59.525Z,2.60
2019-06-08T23:55:03.792Z,2.62
